createdAt,value
2023-03-01T00:01:19.860Z,38.42
2023-03-01T00:06:25.099Z,40.53
2023-03-01T00:11:31.253Z,38.20
2023-03-01T00:16:39.738Z,35.88
2023-03-01T00:21:44.965Z,35.28
2023-03-01T00:26:48.712Z,37.10
2023-03-01T00:31:52.842Z,35.53
2023-03-01T00:37:06.246Z,37.05
2023-03-01T00:42:10.508Z,36.72
2023-03-01T00:47:14.940Z,35.50
2023-03-01T00:52:19.738Z,33.92
2023-03-01T00:57:23.130Z,34.35
2023-03-01T01:02:26.612Z,33.90
2023-03-01T01:07:31.368Z,34.88
2023-03-01T01:12:34.849Z,34.92
2023-03-01T01:17:38.297Z,34.42
2023-03-01T01:22:45.894Z,32.33
2023-03-01T01:27:49.529Z,34.10
2023-03-01T01:32:52.903Z,32.78
2023-03-01T01:37:57.852Z,29.23
2023-03-01T01:43:01.421Z,35.55
2023-03-01T01:48:09.434Z,34.55
2023-03-01T01:53:18.221Z,36.13
2023-03-01T01:58:23.896Z,36.20
2023-03-01T02:03:34.314Z,34.33
2023-03-01T02:08:42.347Z,36.03
2023-03-01T02:13:46.127Z,35.35
2023-03-01T02:18:49.938Z,36.10
2023-03-01T02:23:56.553Z,35.30
2023-03-01T02:29:01.562Z,33.08
2023-03-01T02:34:06.658Z,33.50
2023-03-01T02:39:15.414Z,34.13
2023-03-01T02:44:20.517Z,36.33
2023-03-01T02:49:26.980Z,36.58
2023-03-01T02:54:33.494Z,37.20
2023-03-01T02:59:41.827Z,36.13
2023-03-01T03:04:45.246Z,35.17
2023-03-01T03:09:48.979Z,35.22
2023-03-01T03:14:53.981Z,35.53
2023-03-01T03:19:57.409Z,38.08
2023-03-01T03:25:00.795Z,37.47
2023-03-01T03:30:09.880Z,34.47
2023-03-01T03:35:13.352Z,34.97
2023-03-01T03:40:16.947Z,34.30
2023-03-01T03:45:22.188Z,35.05
2023-03-01T03:50:25.595Z,33.75
2023-03-01T03:55:31.634Z,34.67
2023-03-01T04:00:37.903Z,32.90
2023-03-01T04:05:42.593Z,35.85
2023-03-01T04:10:49.256Z,35.25
2023-03-01T04:15:55.371Z,37.70
2023-03-01T04:20:58.849Z,37.78
2023-03-01T04:26:02.244Z,36.53
2023-03-01T04:31:14.932Z,37.05
2023-03-01T04:36:19.290Z,37.83
2023-03-01T04:41:24.586Z,39.92
2023-03-01T04:46:30.352Z,41.85
2023-03-01T04:51:34.525Z,40.03
2023-03-01T04:56:37.946Z,40.05
2023-03-01T05:01:43.897Z,38.55
2023-03-01T05:06:47.351Z,38.15
2023-03-01T05:11:52.675Z,41.17
2023-03-01T05:17:04.845Z,43.33
2023-03-01T05:22:08.207Z,42.55
2023-03-01T05:27:12.868Z,42.53
2023-03-01T05:32:18.531Z,41.17
2023-03-01T05:37:21.989Z,39.97
2023-03-01T05:42:25.370Z,39.58
2023-03-01T05:47:30.046Z,38.97
2023-03-01T05:52:33.434Z,39.47
2023-03-01T05:57:36.839Z,40.13
2023-03-01T06:02:42.026Z,41.45
2023-03-01T06:07:45.774Z,43.90
2023-03-01T06:12:49.612Z,42.78
2023-03-01T06:17:59.708Z,47.05
2023-03-01T06:23:03.568Z,50.95
2023-03-01T06:28:06.925Z,47.63
2023-03-01T06:33:11.664Z,44.80
2023-03-01T06:38:15.973Z,46.15
2023-03-01T06:43:19.401Z,44.58
2023-03-01T06:48:24.177Z,40.97
2023-03-01T06:53:27.543Z,38.80
2023-03-01T06:58:31.158Z,37.28
2023-03-01T07:03:36.002Z,39.30
2023-03-01T07:08:39.687Z,46.13
2023-03-01T07:13:43.766Z,48.85
2023-03-01T07:18:48.755Z,50.42
2023-03-01T07:23:52.179Z,51.67
2023-03-01T07:28:55.555Z,48.50
2023-03-01T07:34:00.375Z,48.00
2023-03-01T07:39:04.383Z,44.83
2023-03-01T07:44:08.211Z,44.45
2023-03-01T07:49:13.427Z,43.40
2023-03-01T07:54:16.846Z,44.88
2023-03-01T07:59:20.658Z,40.20
2023-03-01T08:04:25.904Z,43.95
2023-03-01T08:09:29.361Z,37.92
2023-03-01T08:14:32.843Z,39.00
2023-03-01T08:19:37.617Z,40.63
2023-03-01T08:24:41.315Z,35.45
2023-03-01T08:29:45.045Z,33.03
2023-03-01T08:34:50.214Z,33.53
2023-03-01T08:39:53.901Z,32.33
2023-03-01T08:44:57.827Z,31.77
2023-03-01T08:50:03.174Z,33.05
2023-03-01T08:55:07.687Z,30.73
2023-03-01T09:00:15.929Z,19.33
2023-03-01T09:05:20.721Z,18.20
2023-03-01T09:10:24.124Z,23.52
2023-03-01T09:15:27.685Z,25.17
2023-03-01T09:20:33.446Z,22.65
2023-03-01T09:25:37.042Z,23.27
2023-03-01T09:30:40.794Z,25.02
2023-03-01T09:35:47.780Z,23.50
2023-03-01T09:40:51.286Z,22.77
2023-03-01T09:45:57.679Z,22.25
2023-03-01T09:51:09.225Z,22.20
2023-03-01T09:56:21.985Z,21.95
2023-03-01T10:01:35.994Z,21.60
2023-03-01T10:06:45.922Z,22.63
2023-03-01T10:11:54.174Z,23.45
2023-03-01T10:17:03.740Z,22.10
2023-03-01T10:22:15.478Z,21.45
2023-03-01T10:27:24.444Z,21.25
2023-03-01T10:32:28.898Z,22.05
2023-03-01T10:37:33.777Z,21.20
2023-03-01T10:42:41.283Z,22.73
2023-03-01T10:47:44.914Z,21.60
2023-03-01T10:53:01.139Z,21.85
2023-03-01T10:58:20.523Z,21.70
2023-03-01T11:03:26.741Z,21.52
2023-03-01T11:08:40.700Z,18.60
2023-03-01T11:13:54.032Z,17.35
2023-03-01T11:24:08.998Z,19.83
2023-03-01T11:29:23.382Z,18.48
2023-03-01T11:34:38.268Z,18.88
2023-03-01T11:39:48.917Z,18.05
2023-03-01T11:44:57.156Z,16.95
2023-03-01T11:50:21.675Z,17.73
2023-03-01T11:55:43.428Z,16.00
2023-03-01T12:01:05.370Z,17.58
2023-03-01T12:06:28.613Z,14.68
2023-03-01T12:11:48.834Z,13.57
2023-03-01T12:17:06.327Z,13.95
2023-03-01T12:22:26.200Z,12.68
2023-03-01T12:27:49.837Z,11.93
2023-03-01T12:33:04.932Z,10.20
2023-03-01T12:38:20.243Z,10.85
2023-03-01T12:43:37.091Z,10.63
2023-03-01T12:48:49.822Z,12.32
2023-03-01T12:53:55.308Z,11.63
2023-03-01T12:59:10.241Z,13.00
2023-03-01T13:04:33.849Z,11.50
2023-03-01T13:09:44.638Z,11.82
2023-03-01T13:14:49.464Z,11.38
2023-03-01T13:19:59.625Z,9.98
2023-03-01T13:25:16.796Z,11.65
2023-03-01T13:30:44.024Z,11.55
2023-03-01T13:35:47.629Z,9.77
2023-03-01T13:41:01.943Z,8.75
2023-03-01T13:46:16.775Z,7.28
2023-03-01T13:51:25.932Z,7.65
2023-03-01T13:56:35.236Z,7.25
2023-03-01T14:01:42.447Z,9.68
2023-03-01T14:06:47.276Z,8.23
2023-03-01T14:12:19.346Z,9.13
2023-03-01T14:17:59.676Z,8.77
2023-03-01T14:23:13.790Z,9.45
2023-03-01T14:33:27.631Z,8.57
2023-03-01T14:38:35.822Z,8.25
2023-03-01T14:43:41.138Z,8.95
2023-03-01T14:48:46.408Z,7.63
2023-03-01T14:53:51.497Z,8.35
2023-03-01T14:58:55.896Z,8.38
2023-03-01T15:04:02.348Z,8.85
2023-03-01T15:09:06.532Z,8.70
2023-03-01T15:14:28.409Z,9.80
2023-03-01T15:19:33.263Z,8.95
2023-03-01T15:24:37.445Z,9.80
2023-03-01T15:29:41.721Z,10.38
2023-03-01T15:34:46.804Z,9.88
2023-03-01T15:39:56.347Z,9.43
2023-03-01T15:45:11.119Z,11.00
2023-03-01T15:50:21.060Z,9.15
2023-03-01T15:55:27.037Z,11.30
2023-03-01T16:00:31.032Z,10.85
2023-03-01T16:05:37.995Z,10.25
2023-03-01T16:10:42.092Z,10.85
2023-03-01T16:15:45.547Z,12.50
2023-03-01T16:20:50.780Z,14.10
2023-03-01T16:25:54.399Z,15.32
2023-03-01T16:30:58.107Z,15.88
2023-03-01T16:36:03.498Z,15.45
2023-03-01T16:41:07.093Z,13.63
2023-03-01T16:46:14.020Z,13.18
2023-03-01T16:51:19.266Z,13.32
2023-03-01T16:56:22.719Z,13.50
2023-03-01T17:01:26.934Z,14.20
2023-03-01T17:06:33.603Z,14.85
2023-03-01T17:11:37.862Z,16.90
2023-03-01T17:16:42.168Z,16.17
2023-03-01T17:21:47.174Z,13.63
2023-03-01T17:26:50.665Z,14.52
2023-03-01T17:31:55.894Z,15.00
2023-03-01T17:37:01.030Z,14.85
2023-03-01T17:42:06.703Z,17.30
2023-03-01T17:47:11.873Z,17.63
2023-03-01T17:52:16.715Z,19.80
2023-03-01T17:57:20.146Z,18.50
2023-03-01T18:02:23.777Z,22.52
2023-03-01T18:07:29.688Z,26.25
2023-03-01T18:12:33.582Z,28.48
2023-03-01T18:17:36.988Z,27.45
2023-03-01T18:22:41.974Z,30.55
2023-03-01T18:27:45.924Z,31.73
2023-03-01T18:32:56.132Z,28.02
2023-03-01T18:38:00.908Z,25.75
2023-03-01T18:43:04.372Z,24.58
2023-03-01T18:48:08.046Z,25.95
2023-03-01T18:53:12.815Z,26.55
2023-03-01T18:58:16.291Z,27.13
2023-03-01T19:03:19.718Z,26.38
2023-03-01T19:08:24.714Z,28.98
2023-03-01T19:13:29.022Z,29.30
2023-03-01T19:18:32.443Z,28.10
2023-03-01T19:23:38.568Z,24.45
2023-03-01T19:28:42.563Z,27.05
2023-03-01T19:33:46.520Z,26.02
2023-03-01T19:38:51.751Z,27.08
2023-03-01T19:43:55.428Z,26.77
2023-03-01T19:49:00.472Z,28.20
2023-03-01T19:54:06.497Z,31.52
2023-03-01T19:59:09.927Z,29.00
2023-03-01T20:04:13.935Z,27.58
2023-03-01T20:09:22.235Z,27.25
2023-03-01T20:14:25.971Z,30.65
2023-03-01T20:19:29.765Z,34.22
2023-03-01T20:24:34.547Z,31.15
2023-03-01T20:29:37.975Z,33.47
2023-03-01T20:34:41.700Z,32.80
2023-03-01T20:39:46.663Z,33.95
2023-03-01T20:44:50.629Z,31.75
2023-03-01T20:49:54.048Z,37.70
2023-03-01T20:54:59.658Z,36.10
2023-03-01T21:00:03.707Z,37.03
2023-03-01T21:05:07.834Z,40.03
2023-03-01T21:10:14.202Z,39.17
2023-03-01T21:15:28.584Z,39.08
2023-03-01T21:20:32.900Z,39.38
2023-03-01T21:25:38.498Z,38.90
2023-03-01T21:30:41.874Z,37.58
2023-03-01T21:35:45.331Z,46.80
2023-03-01T21:40:50.084Z,43.10
2023-03-01T21:45:53.567Z,40.35
2023-03-01T21:50:57.146Z,41.20
2023-03-01T21:56:02.305Z,38.97
2023-03-01T22:01:11.014Z,40.70
2023-03-01T22:06:30.574Z,42.78
2023-03-01T22:11:39.446Z,51.13
2023-03-01T22:16:45.541Z,59.70
2023-03-01T22:21:50.933Z,88.00
2023-03-01T22:26:56.148Z,97.95
2023-03-01T22:32:00.111Z,87.85
2023-03-01T22:37:03.862Z,67.40
2023-03-01T22:42:09.786Z,57.22
2023-03-01T22:47:13.357Z,50.20
2023-03-01T22:52:16.816Z,64.47
2023-03-01T22:57:21.835Z,55.70
2023-03-01T23:02:25.489Z,57.15
2023-03-01T23:07:28.978Z,54.58
2023-03-01T23:12:34.492Z,50.95
2023-03-01T23:17:38.197Z,53.88
2023-03-01T23:22:41.933Z,54.47
2023-03-01T23:27:46.723Z,52.75
2023-03-01T23:32:50.517Z,49.72
2023-03-01T23:37:53.940Z,51.20
2023-03-01T23:42:58.682Z,51.75
2023-03-01T23:48:02.099Z,47.33
2023-03-01T23:53:05.520Z,47.90
2023-03-01T23:58:10.401Z,47.00
